sensor_id;sensor_type;location;lat;lon;timestamp;P1;durP1;ratioP1;P2;durP2;ratioP2
16731;SDS011;8484;50.904;9.192;2023-06-22T00:01:12;7.40;;;6.23;;
16731;SDS011;8484;50.904;9.192;2023-06-22T00:03:39;6.77;;;6.00;;
16731;SDS011;8484;50.904;9.192;2023-06-22T00:06:06;6.50;;;5.57;;
16731;SDS011;8484;50.904;9.192;2023-06-22T00:08:35;5.87;;;5.37;;
16731;SDS011;8484;50.904;9.192;2023-06-22T00:11:02;7.47;;;5.00;;
16731;SDS011;8484;50.904;9.192;2023-06-22T00:13:29;5.17;;;4.77;;
16731;SDS011;8484;50.904;9.192;2023-06-22T00:15:56;5.67;;;5.17;;
16731;SDS011;8484;50.904;9.192;2023-06-22T00:18:23;6.83;;;5.43;;
16731;SDS011;8484;50.904;9.192;2023-06-22T00:20:53;5.73;;;4.87;;
16731;SDS011;8484;50.904;9.192;2023-06-22T00:23:22;6.17;;;5.30;;
16731;SDS011;8484;50.904;9.192;2023-06-22T00:25:51;5.53;;;4.93;;
16731;SDS011;8484;50.904;9.192;2023-06-22T00:28:18;5.40;;;4.90;;
16731;SDS011;8484;50.904;9.192;2023-06-22T00:30:45;7.50;;;5.80;;
16731;SDS011;8484;50.904;9.192;2023-06-22T00:33:12;5.73;;;5.23;;
16731;SDS011;8484;50.904;9.192;2023-06-22T00:35:41;6.03;;;5.37;;
16731;SDS011;8484;50.904;9.192;2023-06-22T00:38:08;10.60;;;5.83;;
16731;SDS011;8484;50.904;9.192;2023-06-22T00:40:35;7.10;;;5.83;;
16731;SDS011;8484;50.904;9.192;2023-06-22T00:43:04;7.00;;;6.00;;
16731;SDS011;8484;50.904;9.192;2023-06-22T00:45:31;11.57;;;6.07;;
16731;SDS011;8484;50.904;9.192;2023-06-22T00:47:59;6.60;;;5.90;;
16731;SDS011;8484;50.904;9.192;2023-06-22T00:50:26;7.60;;;6.23;;
16731;SDS011;8484;50.904;9.192;2023-06-22T00:52:59;8.50;;;6.27;;
16731;SDS011;8484;50.904;9.192;2023-06-22T00:55:29;11.23;;;7.10;;
16731;SDS011;8484;50.904;9.192;2023-06-22T00:57:56;9.07;;;6.90;;
16731;SDS011;8484;50.904;9.192;2023-06-22T01:00:24;6.93;;;6.23;;
16731;SDS011;8484;50.904;9.192;2023-06-22T01:02:52;7.43;;;6.30;;
16731;SDS011;8484;50.904;9.192;2023-06-22T01:05:19;6.97;;;6.37;;
16731;SDS011;8484;50.904;9.192;2023-06-22T01:08:00;7.00;;;6.10;;
16731;SDS011;8484;50.904;9.192;2023-06-22T01:10:36;6.57;;;5.97;;
16731;SDS011;8484;50.904;9.192;2023-06-22T01:13:07;6.60;;;5.90;;
16731;SDS011;8484;50.904;9.192;2023-06-22T01:15:42;6.40;;;5.80;;
16731;SDS011;8484;50.904;9.192;2023-06-22T01:18:14;7.87;;;5.50;;
16731;SDS011;8484;50.904;9.192;2023-06-22T01:20:45;6.13;;;5.43;;
16731;SDS011;8484;50.904;9.192;2023-06-22T01:23:17;6.33;;;5.73;;
16731;SDS011;8484;50.904;9.192;2023-06-22T01:25:59;6.27;;;5.67;;
16731;SDS011;8484;50.904;9.192;2023-06-22T01:28:39;6.20;;;5.43;;
16731;SDS011;8484;50.904;9.192;2023-06-22T01:31:15;6.27;;;5.67;;
16731;SDS011;8484;50.904;9.192;2023-06-22T01:33:44;7.07;;;5.10;;
16731;SDS011;8484;50.904;9.192;2023-06-22T01:36:14;6.37;;;5.10;;
16731;SDS011;8484;50.904;9.192;2023-06-22T01:38:43;6.00;;;5.10;;
16731;SDS011;8484;50.904;9.192;2023-06-22T01:41:11;5.90;;;5.30;;
16731;SDS011;8484;50.904;9.192;2023-06-22T01:43:40;6.27;;;5.67;;
16731;SDS011;8484;50.904;9.192;2023-06-22T01:46:09;8.10;;;5.40;;
16731;SDS011;8484;50.904;9.192;2023-06-22T01:48:37;6.00;;;5.40;;
16731;SDS011;8484;50.904;9.192;2023-06-22T01:51:05;7.43;;;5.40;;
16731;SDS011;8484;50.904;9.192;2023-06-22T01:53:32;6.00;;;5.40;;
16731;SDS011;8484;50.904;9.192;2023-06-22T01:56:00;5.13;;;4.47;;
16731;SDS011;8484;50.904;9.192;2023-06-22T01:58:27;5.73;;;5.23;;
16731;SDS011;8484;50.904;9.192;2023-06-22T02:00:58;5.60;;;4.90;;
16731;SDS011;8484;50.904;9.192;2023-06-22T02:03:30;5.97;;;5.40;;
16731;SDS011;8484;50.904;9.192;2023-06-22T02:06:01;9.67;;;5.80;;
16731;SDS011;8484;50.904;9.192;2023-06-22T02:08:32;7.20;;;5.97;;
16731;SDS011;8484;50.904;9.192;2023-06-22T02:11:07;8.67;;;5.60;;
16731;SDS011;8484;50.904;9.192;2023-06-22T02:13:36;6.47;;;5.73;;
16731;SDS011;8484;50.904;9.192;2023-06-22T02:16:09;9.60;;;5.83;;
16731;SDS011;8484;50.904;9.192;2023-06-22T02:18:37;8.80;;;6.53;;
16731;SDS011;8484;50.904;9.192;2023-06-22T02:21:05;13.00;;;6.67;;
16731;SDS011;8484;50.904;9.192;2023-06-22T02:23:32;8.57;;;6.37;;
16731;SDS011;8484;50.904;9.192;2023-06-22T02:26:01;9.00;;;6.30;;
16731;SDS011;8484;50.904;9.192;2023-06-22T02:28:28;13.73;;;7.30;;
16731;SDS011;8484;50.904;9.192;2023-06-22T02:30:55;8.83;;;7.10;;
16731;SDS011;8484;50.904;9.192;2023-06-22T02:33:23;9.40;;;7.00;;
16731;SDS011;8484;50.904;9.192;2023-06-22T02:35:50;10.97;;;6.73;;
16731;SDS011;8484;50.904;9.192;2023-06-22T02:38:18;12.77;;;7.60;;
16731;SDS011;8484;50.904;9.192;2023-06-22T02:40:45;9.57;;;7.60;;
16731;SDS011;8484;50.904;9.192;2023-06-22T02:43:12;10.67;;;8.33;;
16731;SDS011;8484;50.904;9.192;2023-06-22T02:45:39;10.00;;;7.90;;
16731;SDS011;8484;50.904;9.192;2023-06-22T02:48:06;9.47;;;7.13;;
16731;SDS011;8484;50.904;9.192;2023-06-22T02:50:34;7.93;;;7.13;;
16731;SDS011;8484;50.904;9.192;2023-06-22T02:53:01;11.33;;;8.33;;
16731;SDS011;8484;50.904;9.192;2023-06-22T02:55:28;7.77;;;6.80;;
16731;SDS011;8484;50.904;9.192;2023-06-22T02:57:56;9.00;;;7.53;;
16731;SDS011;8484;50.904;9.192;2023-06-22T03:00:24;9.47;;;7.30;;
16731;SDS011;8484;50.904;9.192;2023-06-22T03:02:56;12.03;;;7.73;;
16731;SDS011;8484;50.904;9.192;2023-06-22T03:05:23;11.33;;;7.67;;
16731;SDS011;8484;50.904;9.192;2023-06-22T03:07:52;10.30;;;7.37;;
16731;SDS011;8484;50.904;9.192;2023-06-22T03:10:19;11.47;;;6.90;;
16731;SDS011;8484;50.904;9.192;2023-06-22T03:12:48;18.23;;;8.33;;
16731;SDS011;8484;50.904;9.192;2023-06-22T03:15:15;9.73;;;7.50;;
16731;SDS011;8484;50.904;9.192;2023-06-22T03:17:42;10.90;;;7.90;;
16731;SDS011;8484;50.904;9.192;2023-06-22T03:20:09;13.37;;;8.30;;
16731;SDS011;8484;50.904;9.192;2023-06-22T03:22:37;9.97;;;8.30;;
16731;SDS011;8484;50.904;9.192;2023-06-22T03:25:06;11.37;;;8.03;;
16731;SDS011;8484;50.904;9.192;2023-06-22T03:27:38;15.47;;;9.10;;
16731;SDS011;8484;50.904;9.192;2023-06-22T03:30:07;11.37;;;7.37;;
16731;SDS011;8484;50.904;9.192;2023-06-22T03:32:35;11.10;;;7.67;;
16731;SDS011;8484;50.904;9.192;2023-06-22T03:35:02;10.30;;;7.30;;
16731;SDS011;8484;50.904;9.192;2023-06-22T03:37:31;11.43;;;6.80;;
16731;SDS011;8484;50.904;9.192;2023-06-22T03:39:58;11.80;;;6.80;;
16731;SDS011;8484;50.904;9.192;2023-06-22T03:42:26;8.47;;;6.40;;
16731;SDS011;8484;50.904;9.192;2023-06-22T03:44:53;8.80;;;6.67;;
16731;SDS011;8484;50.904;9.192;2023-06-22T03:47:21;7.67;;;6.73;;
16731;SDS011;8484;50.904;9.192;2023-06-22T03:49:48;9.53;;;6.67;;
16731;SDS011;8484;50.904;9.192;2023-06-22T03:52:20;11.60;;;6.80;;
16731;SDS011;8484;50.904;9.192;2023-06-22T03:54:48;7.63;;;6.40;;
16731;SDS011;8484;50.904;9.192;2023-06-22T03:57:15;9.47;;;6.87;;
16731;SDS011;8484;50.904;9.192;2023-06-22T03:59:43;11.13;;;7.10;;
16731;SDS011;8484;50.904;9.192;2023-06-22T04:02:10;8.63;;;6.30;;
16731;SDS011;8484;50.904;9.192;2023-06-22T04:04:37;6.63;;;6.03;;
16731;SDS011;8484;50.904;9.192;2023-06-22T04:07:05;7.40;;;6.30;;
16731;SDS011;8484;50.904;9.192;2023-06-22T04:09:32;8.30;;;6.40;;
16731;SDS011;8484;50.904;9.192;2023-06-22T04:12:00;11.70;;;6.53;;
16731;SDS011;8484;50.904;9.192;2023-06-22T04:14:27;10.90;;;6.73;;
16731;SDS011;8484;50.904;9.192;2023-06-22T04:16:57;8.13;;;6.83;;
16731;SDS011;8484;50.904;9.192;2023-06-22T04:19:24;7.07;;;6.37;;
16731;SDS011;8484;50.904;9.192;2023-06-22T04:21:51;7.70;;;6.53;;
16731;SDS011;8484;50.904;9.192;2023-06-22T04:24:18;9.57;;;6.63;;
16731;SDS011;8484;50.904;9.192;2023-06-22T04:26:45;7.17;;;6.50;;
16731;SDS011;8484;50.904;9.192;2023-06-22T04:29:12;10.43;;;6.67;;
16731;SDS011;8484;50.904;9.192;2023-06-22T04:31:39;7.40;;;6.07;;
16731;SDS011;8484;50.904;9.192;2023-06-22T04:34:08;8.03;;;6.47;;
16731;SDS011;8484;50.904;9.192;2023-06-22T04:36:35;8.53;;;6.67;;
16731;SDS011;8484;50.904;9.192;2023-06-22T04:39:06;9.17;;;6.20;;
16731;SDS011;8484;50.904;9.192;2023-06-22T04:41:34;10.53;;;6.23;;
16731;SDS011;8484;50.904;9.192;2023-06-22T04:44:07;10.00;;;6.23;;
16731;SDS011;8484;50.904;9.192;2023-06-22T04:46:35;6.80;;;6.10;;
16731;SDS011;8484;50.904;9.192;2023-06-22T04:49:04;9.23;;;6.97;;
16731;SDS011;8484;50.904;9.192;2023-06-22T04:51:36;13.10;;;6.70;;
16731;SDS011;8484;50.904;9.192;2023-06-22T04:54:04;10.50;;;6.83;;
16731;SDS011;8484;50.904;9.192;2023-06-22T04:56:31;8.00;;;6.80;;
16731;SDS011;8484;50.904;9.192;2023-06-22T04:58:58;7.73;;;6.13;;
16731;SDS011;8484;50.904;9.192;2023-06-22T05:01:25;10.17;;;6.63;;
16731;SDS011;8484;50.904;9.192;2023-06-22T05:03:53;8.83;;;6.57;;
16731;SDS011;8484;50.904;9.192;2023-06-22T05:06:21;9.07;;;6.83;;
16731;SDS011;8484;50.904;9.192;2023-06-22T05:08:52;7.90;;;5.83;;
16731;SDS011;8484;50.904;9.192;2023-06-22T05:11:22;6.77;;;5.73;;
16731;SDS011;8484;50.904;9.192;2023-06-22T05:13:51;7.60;;;5.53;;
16731;SDS011;8484;50.904;9.192;2023-06-22T05:16:18;6.53;;;5.93;;
16731;SDS011;8484;50.904;9.192;2023-06-22T05:18:49;7.00;;;6.30;;
16731;SDS011;8484;50.904;9.192;2023-06-22T05:21:17;7.83;;;5.73;;
16731;SDS011;8484;50.904;9.192;2023-06-22T05:23:44;8.63;;;5.90;;
16731;SDS011;8484;50.904;9.192;2023-06-22T05:26:12;7.97;;;5.83;;
16731;SDS011;8484;50.904;9.192;2023-06-22T05:28:39;7.43;;;5.57;;
16731;SDS011;8484;50.904;9.192;2023-06-22T05:31:06;6.80;;;5.33;;
16731;SDS011;8484;50.904;9.192;2023-06-22T05:33:33;8.40;;;5.90;;
16731;SDS011;8484;50.904;9.192;2023-06-22T05:36:00;10.60;;;6.13;;
16731;SDS011;8484;50.904;9.192;2023-06-22T05:38:28;6.17;;;5.27;;
16731;SDS011;8484;50.904;9.192;2023-06-22T05:40:56;6.90;;;4.93;;
16731;SDS011;8484;50.904;9.192;2023-06-22T05:43:24;6.63;;;5.27;;
16731;SDS011;8484;50.904;9.192;2023-06-22T05:45:51;8.90;;;5.00;;
16731;SDS011;8484;50.904;9.192;2023-06-22T05:48:18;5.17;;;4.67;;
16731;SDS011;8484;50.904;9.192;2023-06-22T05:50:45;6.40;;;4.60;;
16731;SDS011;8484;50.904;9.192;2023-06-22T05:53:12;5.43;;;4.20;;
16731;SDS011;8484;50.904;9.192;2023-06-22T05:55:39;7.17;;;4.93;;
16731;SDS011;8484;50.904;9.192;2023-06-22T05:58:06;7.27;;;4.93;;
16731;SDS011;8484;50.904;9.192;2023-06-22T06:00:34;7.20;;;4.80;;
16731;SDS011;8484;50.904;9.192;2023-06-22T06:03:02;7.40;;;4.70;;
16731;SDS011;8484;50.904;9.192;2023-06-22T06:05:30;4.70;;;4.20;;
16731;SDS011;8484;50.904;9.192;2023-06-22T06:07:57;6.77;;;4.93;;
16731;SDS011;8484;50.904;9.192;2023-06-22T06:10:24;5.63;;;4.87;;
16731;SDS011;8484;50.904;9.192;2023-06-22T06:12:51;5.40;;;4.67;;
16731;SDS011;8484;50.904;9.192;2023-06-22T06:15:18;6.47;;;4.70;;
16731;SDS011;8484;50.904;9.192;2023-06-22T06:17:47;6.87;;;4.70;;
16731;SDS011;8484;50.904;9.192;2023-06-22T06:20:14;5.17;;;4.37;;
16731;SDS011;8484;50.904;9.192;2023-06-22T06:22:41;6.87;;;4.10;;
16731;SDS011;8484;50.904;9.192;2023-06-22T06:25:09;5.83;;;4.10;;
16731;SDS011;8484;50.904;9.192;2023-06-22T06:27:41;4.10;;;3.70;;
16731;SDS011;8484;50.904;9.192;2023-06-22T06:30:08;4.23;;;3.70;;
16731;SDS011;8484;50.904;9.192;2023-06-22T06:32:36;6.13;;;3.43;;
16731;SDS011;8484;50.904;9.192;2023-06-22T06:35:06;3.90;;;3.60;;
16731;SDS011;8484;50.904;9.192;2023-06-22T06:37:35;4.97;;;3.73;;
16731;SDS011;8484;50.904;9.192;2023-06-22T06:40:03;5.17;;;3.40;;
16731;SDS011;8484;50.904;9.192;2023-06-22T06:42:32;3.93;;;3.20;;
16731;SDS011;8484;50.904;9.192;2023-06-22T06:44:58;4.70;;;3.33;;
16731;SDS011;8484;50.904;9.192;2023-06-22T06:47:25;3.47;;;3.17;;
16731;SDS011;8484;50.904;9.192;2023-06-22T06:49:52;3.47;;;2.90;;
16731;SDS011;8484;50.904;9.192;2023-06-22T06:52:20;2.87;;;2.50;;
16731;SDS011;8484;50.904;9.192;2023-06-22T06:54:48;3.20;;;2.90;;
16731;SDS011;8484;50.904;9.192;2023-06-22T06:57:16;3.97;;;2.63;;
16731;SDS011;8484;50.904;9.192;2023-06-22T06:59:43;2.50;;;2.30;;
16731;SDS011;8484;50.904;9.192;2023-06-22T07:02:10;4.00;;;2.47;;
16731;SDS011;8484;50.904;9.192;2023-06-22T07:04:37;2.93;;;2.40;;
16731;SDS011;8484;50.904;9.192;2023-06-22T07:07:04;2.97;;;2.70;;
16731;SDS011;8484;50.904;9.192;2023-06-22T07:09:33;3.43;;;2.97;;
16731;SDS011;8484;50.904;9.192;2023-06-22T07:12:00;3.20;;;2.90;;
16731;SDS011;8484;50.904;9.192;2023-06-22T07:14:26;4.73;;;3.10;;
16731;SDS011;8484;50.904;9.192;2023-06-22T07:16:53;4.40;;;2.80;;
16731;SDS011;8484;50.904;9.192;2023-06-22T07:19:24;3.20;;;2.80;;
16731;SDS011;8484;50.904;9.192;2023-06-22T07:21:51;4.50;;;2.97;;
16731;SDS011;8484;50.904;9.192;2023-06-22T07:24:18;4.33;;;2.80;;
16731;SDS011;8484;50.904;9.192;2023-06-22T07:26:47;3.23;;;2.60;;
16731;SDS011;8484;50.904;9.192;2023-06-22T07:29:16;4.00;;;3.03;;
16731;SDS011;8484;50.904;9.192;2023-06-22T07:31:43;3.20;;;2.47;;
16731;SDS011;8484;50.904;9.192;2023-06-22T07:34:10;3.73;;;2.70;;
16731;SDS011;8484;50.904;9.192;2023-06-22T07:36:37;3.67;;;2.40;;
16731;SDS011;8484;50.904;9.192;2023-06-22T07:39:04;2.60;;;2.40;;
16731;SDS011;8484;50.904;9.192;2023-06-22T07:41:31;2.67;;;2.43;;
16731;SDS011;8484;50.904;9.192;2023-06-22T07:44:00;3.40;;;2.47;;
16731;SDS011;8484;50.904;9.192;2023-06-22T07:46:27;2.70;;;2.50;;
16731;SDS011;8484;50.904;9.192;2023-06-22T07:48:55;3.20;;;2.60;;
16731;SDS011;8484;50.904;9.192;2023-06-22T07:51:22;4.20;;;2.70;;
16731;SDS011;8484;50.904;9.192;2023-06-22T07:53:49;3.80;;;2.73;;
16731;SDS011;8484;50.904;9.192;2023-06-22T07:56:16;3.60;;;2.60;;
16731;SDS011;8484;50.904;9.192;2023-06-22T07:58:44;4.07;;;2.47;;
16731;SDS011;8484;50.904;9.192;2023-06-22T08:01:13;2.63;;;2.30;;
16731;SDS011;8484;50.904;9.192;2023-06-22T08:03:40;3.60;;;2.80;;
16731;SDS011;8484;50.904;9.192;2023-06-22T08:06:07;2.50;;;2.30;;
16731;SDS011;8484;50.904;9.192;2023-06-22T08:08:35;3.27;;;2.30;;
16731;SDS011;8484;50.904;9.192;2023-06-22T08:11:02;2.63;;;2.37;;
16731;SDS011;8484;50.904;9.192;2023-06-22T08:13:29;5.47;;;2.63;;
16731;SDS011;8484;50.904;9.192;2023-06-22T08:15:56;2.50;;;2.30;;
16731;SDS011;8484;50.904;9.192;2023-06-22T08:18:25;6.93;;;2.60;;
16731;SDS011;8484;50.904;9.192;2023-06-22T08:20:52;3.17;;;2.53;;
16731;SDS011;8484;50.904;9.192;2023-06-22T08:23:19;3.50;;;2.60;;
16731;SDS011;8484;50.904;9.192;2023-06-22T08:25:46;2.93;;;2.50;;
16731;SDS011;8484;50.904;9.192;2023-06-22T08:28:15;3.97;;;2.70;;
16731;SDS011;8484;50.904;9.192;2023-06-22T08:30:42;3.00;;;2.40;;
16731;SDS011;8484;50.904;9.192;2023-06-22T08:33:09;2.40;;;2.20;;
16731;SDS011;8484;50.904;9.192;2023-06-22T08:35:37;4.23;;;2.63;;
16731;SDS011;8484;50.904;9.192;2023-06-22T08:38:04;2.67;;;2.43;;
16731;SDS011;8484;50.904;9.192;2023-06-22T08:40:31;3.40;;;2.40;;
16731;SDS011;8484;50.904;9.192;2023-06-22T08:42:58;2.40;;;2.20;;
16731;SDS011;8484;50.904;9.192;2023-06-22T08:45:25;2.60;;;2.30;;
16731;SDS011;8484;50.904;9.192;2023-06-22T08:47:52;3.27;;;2.20;;
16731;SDS011;8484;50.904;9.192;2023-06-22T08:50:19;3.60;;;2.23;;
16731;SDS011;8484;50.904;9.192;2023-06-22T08:52:48;2.27;;;2.03;;
16731;SDS011;8484;50.904;9.192;2023-06-22T08:55:15;2.20;;;2.10;;
16731;SDS011;8484;50.904;9.192;2023-06-22T08:57:42;2.20;;;2.00;;
16731;SDS011;8484;50.904;9.192;2023-06-22T09:00:09;3.30;;;2.23;;
16731;SDS011;8484;50.904;9.192;2023-06-22T09:02:42;2.10;;;1.90;;
16731;SDS011;8484;50.904;9.192;2023-06-22T09:05:09;4.47;;;2.00;;
16731;SDS011;8484;50.904;9.192;2023-06-22T09:07:36;6.57;;;2.33;;
16731;SDS011;8484;50.904;9.192;2023-06-22T09:10:05;3.43;;;1.93;;
16731;SDS011;8484;50.904;9.192;2023-06-22T09:12:32;2.47;;;2.10;;
16731;SDS011;8484;50.904;9.192;2023-06-22T09:15:02;2.10;;;1.90;;
16731;SDS011;8484;50.904;9.192;2023-06-22T09:17:29;2.50;;;2.10;;
16731;SDS011;8484;50.904;9.192;2023-06-22T09:19:56;2.27;;;1.83;;
16731;SDS011;8484;50.904;9.192;2023-06-22T09:22:23;3.63;;;2.07;;
16731;SDS011;8484;50.904;9.192;2023-06-22T09:24:54;2.40;;;2.20;;
16731;SDS011;8484;50.904;9.192;2023-06-22T09:27:22;2.33;;;2.00;;
16731;SDS011;8484;50.904;9.192;2023-06-22T09:29:49;2.00;;;1.90;;
16731;SDS011;8484;50.904;9.192;2023-06-22T09:32:19;2.10;;;2.00;;
16731;SDS011;8484;50.904;9.192;2023-06-22T09:34:46;3.43;;;2.13;;
16731;SDS011;8484;50.904;9.192;2023-06-22T09:37:13;4.67;;;2.00;;
16731;SDS011;8484;50.904;9.192;2023-06-22T09:39:40;2.30;;;2.00;;
16731;SDS011;8484;50.904;9.192;2023-06-22T09:42:07;2.40;;;1.90;;
16731;SDS011;8484;50.904;9.192;2023-06-22T09:44:36;2.30;;;2.10;;
16731;SDS011;8484;50.904;9.192;2023-06-22T09:47:03;2.53;;;2.03;;
16731;SDS011;8484;50.904;9.192;2023-06-22T09:49:30;2.50;;;2.10;;
16731;SDS011;8484;50.904;9.192;2023-06-22T09:51:57;2.40;;;2.20;;
16731;SDS011;8484;50.904;9.192;2023-06-22T09:54:25;1.80;;;1.70;;
16731;SDS011;8484;50.904;9.192;2023-06-22T09:56:57;1.90;;;1.80;;
16731;SDS011;8484;50.904;9.192;2023-06-22T09:59:36;2.13;;;1.93;;
16731;SDS011;8484;50.904;9.192;2023-06-22T10:02:05;2.03;;;1.93;;
16731;SDS011;8484;50.904;9.192;2023-06-22T10:04:32;2.80;;;2.07;;
16731;SDS011;8484;50.904;9.192;2023-06-22T10:06:59;2.67;;;1.90;;
16731;SDS011;8484;50.904;9.192;2023-06-22T10:09:26;2.90;;;1.90;;
16731;SDS011;8484;50.904;9.192;2023-06-22T10:11:53;2.33;;;2.00;;
16731;SDS011;8484;50.904;9.192;2023-06-22T10:14:21;2.03;;;1.80;;
16731;SDS011;8484;50.904;9.192;2023-06-22T10:16:51;2.60;;;1.80;;
16731;SDS011;8484;50.904;9.192;2023-06-22T10:19:19;2.17;;;1.97;;
16731;SDS011;8484;50.904;9.192;2023-06-22T10:21:46;1.97;;;1.80;;
16731;SDS011;8484;50.904;9.192;2023-06-22T10:24:13;4.20;;;2.10;;
16731;SDS011;8484;50.904;9.192;2023-06-22T10:26:39;2.00;;;1.70;;
16731;SDS011;8484;50.904;9.192;2023-06-22T10:29:07;3.33;;;1.90;;
16731;SDS011;8484;50.904;9.192;2023-06-22T10:31:34;2.15;;;1.80;;
16731;SDS011;8484;50.904;9.192;2023-06-22T10:34:02;1.73;;;1.63;;
16731;SDS011;8484;50.904;9.192;2023-06-22T10:36:32;2.10;;;1.70;;
16731;SDS011;8484;50.904;9.192;2023-06-22T10:38:59;1.60;;;1.50;;
16731;SDS011;8484;50.904;9.192;2023-06-22T10:41:27;1.63;;;1.52;;
16731;SDS011;8484;50.904;9.192;2023-06-22T10:43:56;2.67;;;1.90;;
16731;SDS011;8484;50.904;9.192;2023-06-22T10:46:23;2.28;;;1.63;;
16731;SDS011;8484;50.904;9.192;2023-06-22T10:48:50;1.52;;;1.42;;
16731;SDS011;8484;50.904;9.192;2023-06-22T10:51:21;2.37;;;1.60;;
16731;SDS011;8484;50.904;9.192;2023-06-22T10:53:48;1.53;;;1.43;;
16731;SDS011;8484;50.904;9.192;2023-06-22T10:56:16;3.27;;;1.43;;
16731;SDS011;8484;50.904;9.192;2023-06-22T10:58:44;1.70;;;1.60;;
16731;SDS011;8484;50.904;9.192;2023-06-22T11:01:11;2.37;;;1.93;;
16731;SDS011;8484;50.904;9.192;2023-06-22T11:03:39;1.80;;;1.70;;
16731;SDS011;8484;50.904;9.192;2023-06-22T11:06:06;1.80;;;1.70;;
16731;SDS011;8484;50.904;9.192;2023-06-22T11:08:34;2.10;;;1.90;;
16731;SDS011;8484;50.904;9.192;2023-06-22T11:11:01;1.97;;;1.83;;
16731;SDS011;8484;50.904;9.192;2023-06-22T11:13:28;2.37;;;1.90;;
16731;SDS011;8484;50.904;9.192;2023-06-22T11:15:55;1.90;;;1.70;;
16731;SDS011;8484;50.904;9.192;2023-06-22T11:18:22;2.93;;;1.87;;
16731;SDS011;8484;50.904;9.192;2023-06-22T11:20:51;2.23;;;1.63;;
16731;SDS011;8484;50.904;9.192;2023-06-22T11:23:18;2.43;;;1.93;;
16731;SDS011;8484;50.904;9.192;2023-06-22T11:25:46;2.07;;;1.83;;
16731;SDS011;8484;50.904;9.192;2023-06-22T11:28:13;2.20;;;2.00;;
16731;SDS011;8484;50.904;9.192;2023-06-22T11:30:40;3.87;;;1.73;;
16731;SDS011;8484;50.904;9.192;2023-06-22T11:33:07;3.13;;;2.00;;
16731;SDS011;8484;50.904;9.192;2023-06-22T11:35:34;2.27;;;1.70;;
16731;SDS011;8484;50.904;9.192;2023-06-22T11:38:01;2.20;;;2.00;;
16731;SDS011;8484;50.904;9.192;2023-06-22T11:40:30;2.40;;;2.10;;
16731;SDS011;8484;50.904;9.192;2023-06-22T11:42:58;2.37;;;2.17;;
16731;SDS011;8484;50.904;9.192;2023-06-22T11:45:26;2.40;;;2.20;;
16731;SDS011;8484;50.904;9.192;2023-06-22T11:47:53;2.40;;;2.10;;
16731;SDS011;8484;50.904;9.192;2023-06-22T11:50:23;3.00;;;2.30;;
16731;SDS011;8484;50.904;9.192;2023-06-22T11:52:50;2.13;;;1.93;;
16731;SDS011;8484;50.904;9.192;2023-06-22T11:55:18;3.20;;;2.20;;
16731;SDS011;8484;50.904;9.192;2023-06-22T11:57:52;2.00;;;1.90;;
16731;SDS011;8484;50.904;9.192;2023-06-22T12:00:23;2.53;;;1.90;;
16731;SDS011;8484;50.904;9.192;2023-06-22T12:02:50;2.17;;;1.97;;
16731;SDS011;8484;50.904;9.192;2023-06-22T12:05:18;2.10;;;1.90;;
16731;SDS011;8484;50.904;9.192;2023-06-22T12:07:45;2.13;;;1.70;;
16731;SDS011;8484;50.904;9.192;2023-06-22T12:10:12;3.20;;;1.70;;
16731;SDS011;8484;50.904;9.192;2023-06-22T12:12:40;2.20;;;1.90;;
16731;SDS011;8484;50.904;9.192;2023-06-22T12:15:08;1.83;;;1.73;;
16731;SDS011;8484;50.904;9.192;2023-06-22T12:17:37;5.53;;;2.27;;
16731;SDS011;8484;50.904;9.192;2023-06-22T12:20:05;1.70;;;1.60;;
16731;SDS011;8484;50.904;9.192;2023-06-22T12:22:33;2.00;;;1.80;;
16731;SDS011;8484;50.904;9.192;2023-06-22T12:25:03;2.10;;;1.90;;
16731;SDS011;8484;50.904;9.192;2023-06-22T12:27:32;2.10;;;1.90;;
16731;SDS011;8484;50.904;9.192;2023-06-22T12:30:00;2.70;;;1.97;;
16731;SDS011;8484;50.904;9.192;2023-06-22T12:32:27;3.07;;;2.00;;
16731;SDS011;8484;50.904;9.192;2023-06-22T12:34:56;2.90;;;2.10;;
16731;SDS011;8484;50.904;9.192;2023-06-22T12:37:26;2.27;;;1.90;;
16731;SDS011;8484;50.904;9.192;2023-06-22T12:39:54;2.30;;;2.00;;
16731;SDS011;8484;50.904;9.192;2023-06-22T12:42:21;1.80;;;1.70;;
16731;SDS011;8484;50.904;9.192;2023-06-22T12:44:47;2.20;;;1.90;;
16731;SDS011;8484;50.904;9.192;2023-06-22T12:47:14;1.83;;;1.73;;
16731;SDS011;8484;50.904;9.192;2023-06-22T12:49:42;2.37;;;1.70;;
16731;SDS011;8484;50.904;9.192;2023-06-22T12:52:10;2.00;;;1.80;;
16731;SDS011;8484;50.904;9.192;2023-06-22T12:54:37;2.47;;;1.70;;
16731;SDS011;8484;50.904;9.192;2023-06-22T12:57:04;3.00;;;1.60;;
16731;SDS011;8484;50.904;9.192;2023-06-22T12:59:32;2.20;;;1.80;;
16731;SDS011;8484;50.904;9.192;2023-06-22T13:01:59;2.00;;;1.80;;
16731;SDS011;8484;50.904;9.192;2023-06-22T13:04:26;2.97;;;1.80;;
16731;SDS011;8484;50.904;9.192;2023-06-22T13:06:53;3.17;;;1.50;;
16731;SDS011;8484;50.904;9.192;2023-06-22T13:09:21;4.40;;;1.60;;
16731;SDS011;8484;50.904;9.192;2023-06-22T13:11:48;2.13;;;1.67;;
16731;SDS011;8484;50.904;9.192;2023-06-22T13:14:15;1.77;;;1.67;;
16731;SDS011;8484;50.904;9.192;2023-06-22T13:16:42;1.83;;;1.73;;
16731;SDS011;8484;50.904;9.192;2023-06-22T13:19:12;3.17;;;2.00;;
16731;SDS011;8484;50.904;9.192;2023-06-22T13:21:39;2.00;;;1.80;;
16731;SDS011;8484;50.904;9.192;2023-06-22T13:24:06;3.53;;;1.40;;
16731;SDS011;8484;50.904;9.192;2023-06-22T13:26:34;3.30;;;1.60;;
16731;SDS011;8484;50.904;9.192;2023-06-22T13:29:01;1.70;;;1.60;;
16731;SDS011;8484;50.904;9.192;2023-06-22T13:31:29;1.80;;;1.67;;
16731;SDS011;8484;50.904;9.192;2023-06-22T13:33:56;2.27;;;1.50;;
16731;SDS011;8484;50.904;9.192;2023-06-22T13:36:22;2.67;;;1.70;;
16731;SDS011;8484;50.904;9.192;2023-06-22T13:38:49;2.80;;;1.50;;
16731;SDS011;8484;50.904;9.192;2023-06-22T13:41:17;2.93;;;1.70;;
16731;SDS011;8484;50.904;9.192;2023-06-22T13:43:45;1.70;;;1.60;;
16731;SDS011;8484;50.904;9.192;2023-06-22T13:46:12;2.27;;;1.77;;
16731;SDS011;8484;50.904;9.192;2023-06-22T13:48:39;1.90;;;1.70;;
16731;SDS011;8484;50.904;9.192;2023-06-22T13:51:06;3.33;;;1.60;;
16731;SDS011;8484;50.904;9.192;2023-06-22T13:53:33;2.30;;;1.83;;
16731;SDS011;8484;50.904;9.192;2023-06-22T13:56:00;2.97;;;1.70;;
16731;SDS011;8484;50.904;9.192;2023-06-22T13:58:28;3.30;;;1.60;;
16731;SDS011;8484;50.904;9.192;2023-06-22T14:00:56;2.20;;;1.97;;
16731;SDS011;8484;50.904;9.192;2023-06-22T14:03:24;4.37;;;2.00;;
16731;SDS011;8484;50.904;9.192;2023-06-22T14:05:51;2.00;;;1.70;;
16731;SDS011;8484;50.904;9.192;2023-06-22T14:08:21;4.23;;;1.80;;
16731;SDS011;8484;50.904;9.192;2023-06-22T14:10:50;2.60;;;1.83;;
16731;SDS011;8484;50.904;9.192;2023-06-22T14:13:18;1.87;;;1.60;;
16731;SDS011;8484;50.904;9.192;2023-06-22T14:15:45;2.53;;;1.87;;
16731;SDS011;8484;50.904;9.192;2023-06-22T14:18:14;2.13;;;1.50;;
16731;SDS011;8484;50.904;9.192;2023-06-22T14:20:41;1.87;;;1.73;;
16731;SDS011;8484;50.904;9.192;2023-06-22T14:23:08;2.57;;;1.90;;
16731;SDS011;8484;50.904;9.192;2023-06-22T14:25:35;1.97;;;1.60;;
16731;SDS011;8484;50.904;9.192;2023-06-22T14:28:02;1.93;;;1.67;;
16731;SDS011;8484;50.904;9.192;2023-06-22T14:30:29;4.07;;;1.93;;
16731;SDS011;8484;50.904;9.192;2023-06-22T14:32:56;2.97;;;1.90;;
16731;SDS011;8484;50.904;9.192;2023-06-22T14:35:24;3.00;;;2.00;;
16731;SDS011;8484;50.904;9.192;2023-06-22T14:37:51;3.87;;;1.90;;
16731;SDS011;8484;50.904;9.192;2023-06-22T14:40:18;5.47;;;2.30;;
16731;SDS011;8484;50.904;9.192;2023-06-22T14:42:45;2.10;;;1.87;;
16731;SDS011;8484;50.904;9.192;2023-06-22T14:45:12;2.00;;;1.80;;
16731;SDS011;8484;50.904;9.192;2023-06-22T14:47:39;4.07;;;1.70;;
16731;SDS011;8484;50.904;9.192;2023-06-22T14:50:07;2.30;;;1.83;;
16731;SDS011;8484;50.904;9.192;2023-06-22T14:52:36;3.20;;;2.30;;
16731;SDS011;8484;50.904;9.192;2023-06-22T14:55:03;3.53;;;1.97;;
16731;SDS011;8484;50.904;9.192;2023-06-22T14:57:30;2.73;;;1.80;;
16731;SDS011;8484;50.904;9.192;2023-06-22T14:59:57;3.00;;;2.17;;
16731;SDS011;8484;50.904;9.192;2023-06-22T15:02:26;4.90;;;2.40;;
16731;SDS011;8484;50.904;9.192;2023-06-22T15:04:53;3.33;;;2.10;;